CET,Max TemperatureF,Mean TemperatureF,Min TemperatureF,Max Dew PointF,MeanDew PointF,Min DewpointF,Max Humidity, Mean Humidity, Min Humidity, Max Sea Level PressureIn, Mean Sea Level PressureIn, Min Sea Level PressureIn, Max VisibilityMiles, Mean VisibilityMiles, Min VisibilityMiles, Max Wind SpeedMPH, Mean Wind SpeedMPH, Max Gust SpeedMPH,PrecipitationIn, CloudCover, Events, WindDirDegrees
2014-1-1,64,55,46,47,43,39,93,55,38,29.92,29.78,29.65,19,7,6,26,11,51,0.04,2,Rain,214
2014-1-2,64,55,46,50,47,45,94,69,43,29.87,29.78,29.74,16,7,6,17,5,31,0.00,3,,155
2014-1-3,63,56,50,57,51,45,100,86,59,30.01,29.95,29.83,12,7,4,8,3,,0.01,4,Rain,97
2014-1-4,61,52,42,47,38,32,87,61,31,29.98,29.74,29.56,12,6,3,29,11,55,0.16,4,Rain,276
2014-1-5,64,54,44,47,42,30,72,59,45,30.01,29.94,29.89,19,8,6,21,9,36,0.03,5,Rain,200
2014-1-6,65,62,59,47,45,41,63,50,34,29.93,29.89,29.86,19,8,6,24,11,41,0.00,3,,194
2014-1-7,70,65,60,50,48,46,63,53,38,30.06,29.97,29.92,19,7,6,15,6,29,0.00,3,,189
2014-1-8,73,58,44,49,41,34,67,44,14,30.06,30.03,29.98,19,15,9,16,8,28,0.00,,,147
2014-1-9,61,56,50,54,46,36,94,69,31,30.09,30.06,30.01,12,7,6,9,3,,0.00,4,,314
2014-1-10,59,50,42,50,46,41,100,85,58,30.04,29.98,29.92,12,6,4,7,4,,0.00,3,,305
2014-1-11,62,54,46,50,47,41,100,84,62,30.15,30.09,30.06,12,7,6,9,1,,0.00,5,,118
2014-1-12,66,56,47,50,43,39,82,60,35,30.12,30.07,30.04,16,8,6,24,11,38,0.00,4,Rain,221
2014-1-13,61,54,46,48,40,32,100,65,23,30.15,30.04,29.89,19,6,4,21,5,33,0.03,3,Rain,231
2014-1-14,54,50,46,50,46,41,94,87,69,30.06,29.94,29.80,12,5,2,13,6,15,0.55,6,Rain,303
2014-1-15,61,56,50,50,46,43,96,72,41,29.98,29.84,29.68,12,6,4,20,6,31,0.00,4,Rain,173
2014-1-16,60,53,46,46,38,34,100,57,29,29.71,29.67,29.65,12,7,6,21,8,32,0.00,2,,219
2014-1-17,62,56,50,39,33,30,66,45,23,29.56,29.48,29.42,19,9,6,17,12,31,0.00,1,Rain,160
2014-1-18,56,48,41,45,40,37,93,71,49,29.39,29.36,29.30,16,7,4,18,11,25,0.02,4,Rain,190
2014-1-19,48,40,33,42,37,32,100,86,66,29.77,29.57,29.36,19,7,5,22,5,33,0.08,6,Rain,289
2014-1-20,50,44,39,44,40,36,100,87,68,30.09,29.98,29.83,9,6,2,18,7,21,0.51,6,Rain,264
2014-1-21,56,48,39,45,40,37,100,74,48,30.04,29.94,29.83,12,7,4,10,3,,0.00,5,Rain,176
2014-1-22,55,50,44,49,45,43,100,90,65,30.15,29.98,29.86,9,5,3,17,5,28,0.28,6,Rain,298
2014-1-23,55,50,46,48,46,43,94,86,72,30.39,30.31,30.21,12,6,5,15,5,,0.12,6,Rain,302
2014-1-24,57,54,51,52,47,41,100,81,60,30.34,30.25,30.18,12,5,1,29,15,43,0.47,6,Rain,306
2014-1-25,56,54,51,55,53,52,100,97,94,30.39,30.32,30.24,6,2,1,23,18,32,0.43,6,Rain,314
2014-1-26,62,56,50,55,50,46,100,86,46,30.33,30.13,29.95,19,4,0,21,3,36,0.01,6,Fog-Rain,264
2014-1-27,50,46,41,43,39,37,87,81,69,29.98,29.88,29.80,7,6,4,23,11,45,0.28,6,Rain-Thunderstorm,287
2014-1-28,54,48,42,43,37,32,93,69,45,29.80,29.52,29.33,19,7,5,22,10,37,0.24,4,Rain,235
2014-1-29,51,43,35,43,38,34,94,84,66,29.65,29.51,29.36,19,6,2,21,4,,0.20,6,Rain-Hail,279
2014-1-30,49,44,39,42,39,36,93,85,73,29.81,29.76,29.65,9,5,2,17,6,30,0.24,6,Rain,266
2014-1-31,57,50,44,45,43,39,94,77,58,29.89,29.80,29.65,16,7,6,10,5,,0.02,5,Rain,158